createdAt,value
2019-05-19T00:00:46.132Z,0.00
2019-05-19T00:01:46.229Z,0.00
2019-05-19T00:02:46.138Z,0.00
2019-05-19T00:03:46.223Z,0.00
2019-05-19T00:04:46.201Z,0.00
2019-05-19T00:05:46.319Z,0.00
2019-05-19T00:06:46.054Z,0.00
2019-05-19T00:07:46.060Z,0.00
2019-05-19T00:08:46.659Z,0.00
2019-05-19T00:09:46.029Z,0.00
2019-05-19T00:10:46.009Z,0.00
2019-05-19T00:11:46.010Z,0.00
2019-05-19T00:12:46.006Z,0.00
2019-05-19T00:13:45.979Z,0.00
2019-05-19T00:14:45.990Z,0.00
2019-05-19T00:15:45.974Z,0.00
2019-05-19T00:16:45.940Z,0.00
2019-05-19T00:17:46.040Z,0.00
2019-05-19T00:18:45.911Z,0.00
2019-05-19T00:19:45.922Z,0.00
2019-05-19T00:20:45.889Z,0.00
2019-05-19T00:21:45.923Z,0.00
2019-05-19T00:22:45.869Z,0.00
2019-05-19T00:23:45.880Z,0.00
2019-05-19T00:24:45.859Z,0.00
2019-05-19T00:25:45.853Z,0.00
2019-05-19T00:26:45.829Z,0.00
2019-05-19T00:27:45.839Z,0.00
2019-05-19T00:28:45.830Z,0.00
2019-05-19T00:29:45.819Z,0.00
2019-05-19T00:30:45.781Z,0.00
2019-05-19T00:31:45.779Z,0.00
2019-05-19T00:32:45.769Z,0.00
2019-05-19T00:33:45.752Z,0.00
2019-05-19T00:34:45.749Z,0.00
2019-05-19T00:35:45.739Z,0.00
2019-05-19T00:36:45.722Z,0.00
2019-05-19T00:37:45.719Z,0.00
2019-05-19T00:38:45.722Z,0.00
2019-05-19T00:39:45.699Z,0.00
2019-05-19T00:40:45.689Z,0.00
2019-05-19T00:41:45.699Z,0.00
2019-05-19T00:42:45.649Z,0.00
2019-05-19T00:43:45.639Z,0.00
2019-05-19T00:44:45.631Z,0.00
2019-05-19T00:45:45.630Z,0.00
2019-05-19T00:46:45.622Z,0.00
2019-05-19T00:47:45.616Z,0.00
2019-05-19T00:48:45.579Z,0.00
2019-05-19T00:49:45.605Z,0.00
2019-05-19T00:50:45.561Z,0.00
2019-05-19T00:51:45.563Z,0.00
2019-05-19T00:52:45.558Z,0.00
2019-05-19T00:53:45.539Z,0.00
2019-05-19T00:54:45.551Z,0.00
2019-05-19T00:55:45.567Z,0.00
2019-05-19T00:56:45.499Z,0.00
2019-05-19T00:57:45.500Z,0.00
2019-05-19T00:58:45.489Z,0.00
2019-05-19T00:59:45.473Z,0.00
2019-05-19T01:00:45.466Z,0.00
2019-05-19T01:01:45.476Z,0.00
2019-05-19T01:02:45.447Z,0.00
2019-05-19T01:03:45.428Z,0.00
2019-05-19T01:04:45.443Z,0.00
2019-05-19T01:05:45.441Z,0.00
2019-05-19T01:06:45.387Z,0.00
2019-05-19T01:07:45.379Z,0.00
2019-05-19T01:08:45.359Z,0.00
2019-05-19T01:09:45.362Z,0.00
2019-05-19T01:10:45.342Z,0.00
2019-05-19T01:11:45.349Z,0.00
2019-05-19T01:12:45.328Z,0.00
2019-05-19T01:13:45.309Z,0.00
2019-05-19T01:14:46.090Z,0.00
2019-05-19T01:15:45.300Z,0.00
2019-05-19T01:16:45.282Z,0.00
2019-05-19T01:17:45.325Z,0.00
2019-05-19T01:18:45.262Z,0.00
2019-05-19T01:19:55.547Z,0.00
2019-05-19T01:20:46.254Z,0.00
2019-05-19T01:21:45.244Z,0.00
2019-05-19T01:22:45.261Z,0.00
2019-05-19T01:23:45.200Z,0.00
2019-05-19T01:24:45.190Z,0.00
2019-05-19T01:25:45.178Z,0.00
2019-05-19T01:26:45.178Z,0.00
2019-05-19T01:27:45.179Z,0.00
2019-05-19T01:28:45.140Z,0.00
2019-05-19T01:29:45.152Z,0.00
2019-05-19T01:30:45.127Z,0.00
2019-05-19T01:31:45.111Z,0.00
2019-05-19T01:32:45.112Z,0.00
2019-05-19T01:33:45.100Z,0.00
2019-05-19T01:34:45.092Z,0.00
2019-05-19T01:35:45.070Z,0.00
2019-05-19T01:36:45.062Z,0.00
2019-05-19T01:37:45.058Z,0.00
2019-05-19T01:38:45.039Z,0.00
2019-05-19T01:39:45.019Z,0.00
2019-05-19T01:40:45.031Z,0.00
2019-05-19T01:41:45.006Z,0.00
2019-05-19T01:42:44.999Z,0.00
2019-05-19T01:43:44.989Z,0.00
2019-05-19T01:44:44.970Z,0.00
2019-05-19T01:45:44.985Z,0.00
2019-05-19T01:46:44.959Z,0.00
2019-05-19T01:47:44.954Z,0.00
2019-05-19T01:48:44.952Z,0.00
2019-05-19T01:49:44.920Z,0.00
2019-05-19T01:50:44.906Z,0.00
2019-05-19T01:51:44.899Z,0.00
2019-05-19T01:52:44.891Z,0.00
2019-05-19T01:53:44.880Z,0.00
2019-05-19T01:54:44.858Z,0.00
2019-05-19T01:55:44.870Z,0.00
2019-05-19T01:56:44.851Z,0.00
2019-05-19T01:57:44.860Z,0.00
2019-05-19T01:58:44.829Z,0.00
2019-05-19T01:59:44.798Z,0.00
2019-05-19T02:00:44.790Z,0.00
2019-05-19T02:01:44.787Z,0.00
2019-05-19T02:02:44.779Z,0.00
2019-05-19T02:03:44.771Z,0.00
2019-05-19T02:04:44.769Z,0.00
2019-05-19T02:05:44.739Z,0.00
2019-05-19T02:06:44.738Z,0.00
2019-05-19T02:07:44.709Z,0.00
2019-05-19T02:08:44.733Z,0.00
2019-05-19T02:09:44.738Z,0.00
2019-05-19T02:10:44.711Z,0.00
2019-05-19T02:11:44.692Z,0.00
2019-05-19T02:12:44.670Z,0.00
2019-05-19T02:13:44.686Z,0.00
2019-05-19T02:14:44.652Z,0.00
2019-05-19T02:15:44.654Z,0.00
2019-05-19T02:16:44.626Z,0.00
2019-05-19T02:17:44.608Z,0.00
2019-05-19T02:18:44.598Z,0.00
2019-05-19T02:19:44.609Z,0.00
2019-05-19T02:20:44.579Z,0.00
2019-05-19T02:21:44.569Z,0.00
2019-05-19T02:22:44.550Z,0.00
2019-05-19T02:23:44.550Z,0.00
2019-05-19T02:24:44.573Z,0.00
2019-05-19T02:25:44.527Z,0.00
2019-05-19T02:26:44.520Z,0.00
2019-05-19T02:27:44.499Z,0.00
2019-05-19T02:28:44.513Z,0.00
2019-05-19T02:29:44.478Z,0.00
2019-05-19T02:30:44.480Z,0.00
2019-05-19T02:31:44.473Z,0.00
2019-05-19T02:32:44.442Z,0.00
2019-05-19T02:33:44.440Z,0.00
2019-05-19T02:34:44.448Z,0.00
2019-05-19T02:35:44.409Z,0.00
2019-05-19T02:36:44.392Z,0.00
2019-05-19T02:37:44.379Z,0.00
2019-05-19T02:38:44.391Z,0.00
2019-05-19T02:39:44.388Z,0.00
2019-05-19T02:40:44.362Z,0.00
2019-05-19T02:41:44.349Z,0.00
2019-05-19T02:42:44.340Z,0.00
2019-05-19T02:43:44.338Z,0.00
2019-05-19T02:44:44.309Z,0.00
2019-05-19T02:45:44.313Z,0.00
2019-05-19T02:46:44.308Z,0.00
2019-05-19T02:47:44.273Z,0.00
2019-05-19T02:48:44.274Z,0.00
2019-05-19T02:49:44.260Z,0.00
2019-05-19T02:50:52.186Z,0.00
2019-05-19T02:51:45.251Z,0.00
2019-05-19T02:52:44.252Z,4.00
2019-05-19T02:53:44.216Z,4.00
2019-05-19T02:54:44.205Z,0.00
2019-05-19T02:55:44.189Z,0.00
2019-05-19T02:56:44.199Z,4.00
2019-05-19T02:57:44.176Z,4.00
2019-05-19T02:58:44.173Z,0.00
2019-05-19T02:59:44.152Z,4.00
2019-05-19T03:00:44.139Z,4.00
2019-05-19T03:01:44.138Z,8.00
2019-05-19T03:02:44.112Z,4.00
2019-05-19T03:03:44.110Z,8.00
2019-05-19T03:04:44.127Z,8.00
2019-05-19T03:05:44.085Z,8.00
2019-05-19T03:06:44.092Z,8.00
2019-05-19T03:07:44.062Z,8.00
2019-05-19T03:08:44.062Z,12.00
2019-05-19T03:09:44.050Z,16.00
2019-05-19T03:10:44.028Z,20.00
2019-05-19T03:11:44.027Z,20.00
2019-05-19T03:12:44.009Z,24.00
2019-05-19T03:13:44.009Z,24.00
2019-05-19T03:14:43.996Z,32.00
2019-05-19T03:15:43.982Z,36.00
2019-05-19T03:16:43.977Z,44.00
2019-05-19T03:17:43.950Z,48.00
2019-05-19T03:18:43.948Z,52.00
2019-05-19T03:19:43.948Z,56.00
2019-05-19T03:20:43.939Z,64.00
2019-05-19T03:21:43.897Z,68.00
2019-05-19T03:22:43.910Z,76.00
2019-05-19T03:23:43.896Z,76.00
2019-05-19T03:24:43.869Z,84.00
2019-05-19T03:25:44.353Z,84.00
2019-05-19T03:26:43.894Z,88.00
2019-05-19T03:27:43.849Z,92.00
2019-05-19T03:28:43.820Z,104.00
2019-05-19T03:29:43.819Z,108.00
2019-05-19T03:30:43.824Z,116.00
2019-05-19T03:31:43.835Z,128.00
2019-05-19T03:32:43.802Z,132.00
2019-05-19T03:33:43.813Z,144.00
2019-05-19T03:34:43.780Z,152.00
2019-05-19T03:35:43.749Z,160.00
2019-05-19T03:36:43.737Z,172.00
2019-05-19T03:37:43.728Z,184.00
2019-05-19T03:38:43.747Z,200.00
2019-05-19T03:39:43.707Z,208.00
2019-05-19T03:40:43.701Z,224.00
2019-05-19T03:41:43.690Z,236.00
2019-05-19T03:42:43.675Z,252.00
2019-05-19T03:43:43.677Z,260.00
2019-05-19T03:44:43.662Z,272.00
2019-05-19T03:45:43.641Z,284.00
2019-05-19T03:46:43.655Z,296.00
2019-05-19T03:47:43.627Z,308.00
2019-05-19T03:48:43.609Z,324.00
2019-05-19T03:49:43.595Z,340.00
2019-05-19T03:50:43.588Z,360.00
2019-05-19T03:51:43.590Z,380.00
2019-05-19T03:52:43.566Z,400.00
2019-05-19T03:53:43.583Z,428.00
2019-05-19T03:54:43.543Z,452.00
2019-05-19T03:55:43.569Z,480.00
2019-05-19T03:56:43.519Z,512.00
2019-05-19T03:57:43.522Z,544.00
2019-05-19T03:58:43.511Z,576.00
2019-05-19T03:59:43.488Z,604.00
2019-05-19T04:00:43.485Z,636.00
2019-05-19T04:01:43.460Z,668.00
2019-05-19T04:02:43.450Z,700.00
2019-05-19T04:03:43.458Z,736.00
2019-05-19T04:04:43.427Z,768.00
2019-05-19T04:05:43.421Z,804.00
2019-05-19T04:06:43.417Z,840.00
2019-05-19T04:07:43.414Z,872.00
2019-05-19T04:08:43.400Z,908.00
2019-05-19T04:09:43.398Z,936.00
2019-05-19T04:10:43.379Z,968.00
2019-05-19T04:11:43.389Z,1004.00
2019-05-19T04:12:43.348Z,1036.00
2019-05-19T04:13:43.336Z,1072.00
2019-05-19T04:14:43.337Z,1104.00
2019-05-19T04:15:43.348Z,1144.00
2019-05-19T04:16:43.311Z,1172.00
2019-05-19T04:17:43.299Z,1212.00
2019-05-19T04:18:43.296Z,1248.00
2019-05-19T04:19:43.295Z,1288.00
2019-05-19T04:20:43.265Z,1328.00
2019-05-19T04:21:48.778Z,1368.00
2019-05-19T04:22:44.240Z,1416.00
2019-05-19T04:23:43.219Z,1464.00
2019-05-19T04:24:43.227Z,1516.00
2019-05-19T04:25:43.220Z,1564.00
2019-05-19T04:26:43.187Z,1612.00
2019-05-19T04:27:43.196Z,1660.00
2019-05-19T04:28:43.176Z,1712.00
2019-05-19T04:29:43.155Z,1768.00
2019-05-19T04:30:43.151Z,1820.00
2019-05-19T04:31:43.147Z,1868.00
2019-05-19T04:32:44.219Z,1916.00
2019-05-19T04:33:43.108Z,1972.00
2019-05-19T04:34:43.127Z,2024.00
2019-05-19T04:35:43.118Z,2080.00
2019-05-19T04:36:43.081Z,2136.00
2019-05-19T04:37:43.075Z,2180.00
2019-05-19T04:38:43.064Z,2220.00
2019-05-19T04:39:43.055Z,2252.00
2019-05-19T04:40:43.048Z,2292.00
2019-05-19T04:41:43.028Z,2332.00
2019-05-19T04:42:43.020Z,2376.00
2019-05-19T04:43:43.050Z,2412.00
2019-05-19T04:44:43.005Z,2456.00
2019-05-19T04:45:43.005Z,2500.00
2019-05-19T04:46:42.969Z,2540.00
2019-05-19T04:47:42.976Z,2588.00
2019-05-19T04:48:43.026Z,2632.00
2019-05-19T04:49:42.928Z,2684.00
2019-05-19T04:50:42.926Z,2736.00
2019-05-19T04:51:42.929Z,2776.00
2019-05-19T04:52:42.928Z,2832.00
2019-05-19T04:53:42.926Z,2900.00
2019-05-19T04:54:42.875Z,2956.00
2019-05-19T04:55:42.875Z,2988.00
2019-05-19T04:56:42.864Z,3004.00
2019-05-19T04:57:42.859Z,3020.00
2019-05-19T04:58:42.827Z,3032.00
2019-05-19T04:59:42.842Z,3040.00
2019-05-19T05:00:42.848Z,3040.00
2019-05-19T05:01:42.814Z,3040.00
2019-05-19T05:02:42.795Z,3032.00
2019-05-19T05:03:42.787Z,3020.00
2019-05-19T05:04:42.813Z,3020.00
2019-05-19T05:05:42.766Z,3028.00
2019-05-19T05:06:42.771Z,3044.00
2019-05-19T05:07:42.766Z,3064.00
2019-05-19T05:08:42.748Z,3092.00
2019-05-19T05:09:42.714Z,3120.00
2019-05-19T05:10:42.708Z,3148.00
2019-05-19T05:11:42.685Z,3176.00
2019-05-19T05:12:42.709Z,3208.00
2019-05-19T05:13:42.665Z,3240.00
2019-05-19T05:14:42.684Z,3276.00
2019-05-19T05:15:42.645Z,3316.00
2019-05-19T05:16:42.637Z,3352.00
2019-05-19T05:17:42.677Z,3392.00
2019-05-19T05:18:42.616Z,3436.00
2019-05-19T05:19:42.595Z,3472.00
2019-05-19T05:20:42.601Z,3508.00
2019-05-19T05:21:42.585Z,3548.00
2019-05-19T05:22:42.574Z,3568.00
2019-05-19T05:23:42.576Z,3592.00
2019-05-19T05:24:42.555Z,3612.00
2019-05-19T05:25:42.545Z,3640.00
2019-05-19T05:26:42.525Z,3660.00
2019-05-19T05:27:42.525Z,3680.00
2019-05-19T05:28:42.516Z,3708.00
2019-05-19T05:29:42.586Z,3744.00
2019-05-19T05:30:42.505Z,3808.00
2019-05-19T05:31:42.464Z,3880.00
2019-05-19T05:32:42.523Z,3968.00
2019-05-19T05:33:42.465Z,4052.00
2019-05-19T05:34:42.465Z,4132.00
2019-05-19T05:35:42.582Z,4220.00
2019-05-19T05:36:42.448Z,4308.00
2019-05-19T05:37:42.425Z,4408.00
2019-05-19T05:38:42.396Z,4504.00
2019-05-19T05:39:42.385Z,4576.00
2019-05-19T05:40:42.373Z,4652.00
2019-05-19T05:41:42.375Z,4712.00
2019-05-19T05:42:42.353Z,4772.00
2019-05-19T05:43:42.347Z,4820.00
2019-05-19T05:44:42.354Z,4852.00
2019-05-19T05:45:42.313Z,4872.00
2019-05-19T05:46:42.304Z,4872.00
2019-05-19T05:47:42.655Z,4864.00
2019-05-19T05:48:42.288Z,4852.00
2019-05-19T05:49:42.391Z,4840.00
2019-05-19T05:50:42.290Z,4824.00
2019-05-19T05:51:42.245Z,4816.00
2019-05-19T05:52:42.234Z,4804.00
2019-05-19T05:53:42.227Z,4820.00
2019-05-19T05:54:42.237Z,4840.00
2019-05-19T05:55:42.221Z,4856.00
2019-05-19T05:56:42.204Z,4868.00
2019-05-19T05:57:42.184Z,4876.00
2019-05-19T05:58:42.184Z,4908.00
2019-05-19T05:59:42.165Z,4936.00
2019-05-19T06:00:42.180Z,4968.00
2019-05-19T06:01:42.147Z,5008.00
2019-05-19T06:02:42.155Z,5040.00
2019-05-19T06:03:42.113Z,5088.00
2019-05-19T06:04:42.106Z,5140.00
2019-05-19T06:05:42.124Z,5188.00
2019-05-19T06:06:42.083Z,5276.00
2019-05-19T06:07:42.072Z,5360.00
2019-05-19T06:08:42.062Z,5444.00
2019-05-19T06:09:42.066Z,5544.00
2019-05-19T06:10:42.064Z,5632.00
2019-05-19T06:11:42.024Z,5708.00
2019-05-19T06:12:42.025Z,5788.00
2019-05-19T06:13:42.009Z,5872.00
2019-05-19T06:14:42.023Z,5952.00
2019-05-19T06:15:41.983Z,6064.00
2019-05-19T06:16:41.973Z,6152.00
2019-05-19T06:17:41.981Z,6232.00
2019-05-19T06:18:41.983Z,6280.00
2019-05-19T06:19:42.023Z,6316.00
2019-05-19T06:20:41.948Z,6332.00
2019-05-19T06:21:41.923Z,6344.00
2019-05-19T06:22:55.127Z,6340.00
2019-05-19T06:23:42.904Z,6352.00
2019-05-19T06:24:41.903Z,6356.00
2019-05-19T06:25:41.890Z,6352.00
2019-05-19T06:26:41.877Z,6336.00
2019-05-19T06:27:41.864Z,6324.00
2019-05-19T06:28:41.845Z,6280.00
2019-05-19T06:29:41.845Z,6220.00
2019-05-19T06:30:41.844Z,6172.00
2019-05-19T06:31:41.814Z,6148.00
2019-05-19T06:32:41.823Z,6152.00
2019-05-19T06:33:41.811Z,6184.00
2019-05-19T06:34:41.797Z,6188.00
2019-05-19T06:35:41.784Z,6204.00
2019-05-19T06:36:41.781Z,6204.00
2019-05-19T06:37:41.757Z,6204.00
2019-05-19T06:38:41.752Z,6196.00
2019-05-19T06:39:41.723Z,6164.00
2019-05-19T06:40:41.740Z,6096.00
2019-05-19T06:41:41.712Z,6036.00
2019-05-19T06:42:41.693Z,5980.00
2019-05-19T06:43:41.718Z,5904.00
2019-05-19T06:44:41.672Z,5792.00
2019-05-19T06:45:41.653Z,5680.00
2019-05-19T06:46:41.664Z,5556.00
2019-05-19T06:47:41.661Z,5396.00
2019-05-19T06:48:41.652Z,5248.00
2019-05-19T06:49:41.614Z,5112.00
2019-05-19T06:50:41.614Z,4988.00
2019-05-19T06:51:41.599Z,4872.00
2019-05-19T06:52:41.597Z,4780.00
2019-05-19T06:53:41.635Z,4712.00
2019-05-19T06:54:41.574Z,4668.00
2019-05-19T06:55:41.912Z,4660.00
2019-05-19T06:56:42.491Z,4660.00
2019-05-19T06:57:42.883Z,4676.00
2019-05-19T06:58:41.534Z,4720.00
2019-05-19T06:59:41.517Z,4796.00
2019-05-19T07:00:41.505Z,4888.00
2019-05-19T07:01:41.482Z,4952.00
2019-05-19T07:02:41.512Z,5028.00
2019-05-19T07:03:41.454Z,5080.00
2019-05-19T07:04:41.458Z,5140.00
2019-05-19T07:05:41.513Z,5216.00
2019-05-19T07:06:41.474Z,5300.00
2019-05-19T07:07:41.412Z,5380.00
2019-05-19T07:08:41.654Z,5480.00
2019-05-19T07:09:41.417Z,5600.00
2019-05-19T07:10:41.383Z,5600.00
2019-05-19T07:11:41.384Z,5664.00
2019-05-19T07:12:41.430Z,5704.00
2019-05-19T07:13:41.362Z,5568.00
2019-05-19T07:14:41.334Z,5600.00
2019-05-19T07:15:41.326Z,5536.00
2019-05-19T07:16:41.336Z,5564.00
2019-05-19T07:17:41.313Z,5584.00
2019-05-19T07:18:41.323Z,5608.00
2019-05-19T07:19:41.431Z,5604.00
2019-05-19T07:20:41.296Z,5568.00
2019-05-19T07:21:41.285Z,5516.00
2019-05-19T07:22:41.259Z,5396.00
2019-05-19T07:23:41.245Z,5316.00
2019-05-19T07:24:41.275Z,5280.00
2019-05-19T07:25:41.243Z,5236.00
2019-05-19T07:26:41.252Z,5236.00
2019-05-19T07:27:41.203Z,5272.00
2019-05-19T07:28:41.193Z,5228.00
2019-05-19T07:29:41.192Z,5260.00
2019-05-19T07:30:41.404Z,5372.00
2019-05-19T07:31:41.184Z,5368.00
2019-05-19T07:32:41.897Z,5476.00
2019-05-19T07:33:41.284Z,5652.00
2019-05-19T07:34:41.394Z,5888.00
2019-05-19T07:35:41.116Z,6156.00
2019-05-19T07:36:41.102Z,6460.00
2019-05-19T07:37:41.885Z,6772.00
2019-05-19T07:38:41.086Z,7056.00
2019-05-19T07:39:41.095Z,7648.00
2019-05-19T07:40:41.074Z,7924.00
2019-05-19T07:41:41.058Z,8180.00
2019-05-19T07:42:41.043Z,8320.00
2019-05-19T07:43:41.023Z,8452.00
2019-05-19T07:44:41.025Z,8564.00
2019-05-19T07:45:41.003Z,8688.00
2019-05-19T07:46:40.993Z,8792.00
2019-05-19T07:47:41.004Z,8948.00
2019-05-19T07:48:40.966Z,9104.00
2019-05-19T07:49:40.964Z,9228.00
2019-05-19T07:50:40.944Z,9388.00
2019-05-19T07:51:40.933Z,9596.00
2019-05-19T07:52:40.914Z,9824.00
2019-05-19T07:53:43.321Z,10076.00
2019-05-19T07:54:40.903Z,10348.00
2019-05-19T07:55:40.918Z,10560.00
2019-05-19T07:56:40.884Z,10648.00
2019-05-19T07:57:41.077Z,10704.00
2019-05-19T07:58:40.862Z,10636.00
2019-05-19T07:59:40.856Z,10524.00
2019-05-19T08:00:40.856Z,10416.00
2019-05-19T08:01:40.853Z,10292.00
2019-05-19T08:02:40.816Z,10124.00
2019-05-19T08:03:40.804Z,9976.00
2019-05-19T08:04:40.794Z,9780.00
2019-05-19T08:05:40.785Z,9616.00
2019-05-19T08:06:40.788Z,9504.00
2019-05-19T08:07:40.795Z,9364.00
2019-05-19T08:08:40.743Z,9260.00
2019-05-19T08:09:40.733Z,9176.00
2019-05-19T08:10:40.724Z,9152.00
2019-05-19T08:11:40.745Z,9208.00
2019-05-19T08:12:40.735Z,9308.00
2019-05-19T08:13:40.693Z,9236.00
2019-05-19T08:14:40.694Z,9368.00
2019-05-19T08:15:40.684Z,9364.00
2019-05-19T08:16:40.667Z,9396.00
2019-05-19T08:17:40.799Z,9412.00
2019-05-19T08:18:40.654Z,9404.00
2019-05-19T08:19:40.632Z,9416.00
2019-05-19T08:20:40.628Z,9324.00
2019-05-19T08:21:40.603Z,9360.00
2019-05-19T08:22:40.605Z,9352.00
2019-05-19T08:23:40.599Z,9248.00
2019-05-19T08:24:40.574Z,9092.00
2019-05-19T08:25:40.608Z,8924.00
2019-05-19T08:26:40.555Z,8712.00
2019-05-19T08:27:40.597Z,8472.00
2019-05-19T08:28:40.537Z,8180.00
2019-05-19T08:29:40.514Z,7848.00
2019-05-19T08:30:40.716Z,7492.00
2019-05-19T08:31:40.510Z,7144.00
2019-05-19T08:32:40.484Z,6800.00
2019-05-19T08:33:40.499Z,6456.00
2019-05-19T08:34:40.468Z,6132.00
2019-05-19T08:35:40.454Z,5848.00
2019-05-19T08:36:40.445Z,5600.00
2019-05-19T08:37:40.467Z,5376.00
2019-05-19T08:38:40.424Z,5192.00
2019-05-19T08:39:40.404Z,4980.00
2019-05-19T08:40:40.450Z,4836.00
2019-05-19T08:41:40.385Z,4776.00
2019-05-19T08:42:40.375Z,4812.00
2019-05-19T08:43:40.376Z,4844.00
2019-05-19T08:44:40.364Z,4900.00
2019-05-19T08:45:40.351Z,4968.00
2019-05-19T08:46:40.337Z,4872.00
2019-05-19T08:47:40.335Z,4820.00
2019-05-19T08:48:40.328Z,4672.00
2019-05-19T08:49:40.295Z,4524.00
2019-05-19T08:50:40.293Z,4560.00
2019-05-19T08:51:40.328Z,4580.00
2019-05-19T08:52:40.277Z,4524.00
2019-05-19T08:53:40.274Z,4452.00
2019-05-19T08:54:40.255Z,4412.00
2019-05-19T08:55:40.249Z,4408.00
2019-05-19T08:56:40.241Z,4380.00
2019-05-19T08:57:40.230Z,4520.00
2019-05-19T08:58:40.259Z,4604.00
2019-05-19T08:59:40.198Z,4600.00
2019-05-19T09:00:40.187Z,4620.00
2019-05-19T09:01:40.183Z,4624.00
2019-05-19T09:02:40.158Z,4592.00
2019-05-19T09:03:40.166Z,4600.00
2019-05-19T09:04:40.161Z,4632.00
2019-05-19T09:05:40.194Z,4712.00
2019-05-19T09:06:40.114Z,4776.00
2019-05-19T09:07:40.107Z,4812.00
2019-05-19T09:08:40.126Z,4836.00
2019-05-19T09:09:40.077Z,4828.00
2019-05-19T09:10:40.077Z,4772.00
2019-05-19T09:11:40.066Z,4792.00
2019-05-19T09:12:40.049Z,4836.00
2019-05-19T09:13:40.046Z,4888.00
2019-05-19T09:14:40.085Z,4920.00
2019-05-19T09:15:40.016Z,4920.00
2019-05-19T09:16:40.007Z,4824.00
2019-05-19T09:17:39.997Z,4780.00
2019-05-19T09:18:39.997Z,4672.00
2019-05-19T09:19:39.986Z,4580.00
2019-05-19T09:20:39.978Z,4488.00
2019-05-19T09:21:39.955Z,4448.00
2019-05-19T09:22:39.960Z,4364.00
2019-05-19T09:23:39.947Z,4232.00
2019-05-19T09:24:39.937Z,4108.00
2019-05-19T09:25:39.915Z,4220.00
2019-05-19T09:26:39.916Z,4444.00
2019-05-19T09:27:39.886Z,4344.00
2019-05-19T09:28:39.909Z,4212.00
2019-05-19T09:29:39.880Z,4272.00
2019-05-19T09:30:39.868Z,4436.00
2019-05-19T09:31:41.529Z,4668.00
2019-05-19T09:32:39.903Z,4816.00
2019-05-19T09:33:39.817Z,4876.00
2019-05-19T09:34:39.817Z,4928.00
2019-05-19T09:35:39.816Z,5016.00
2019-05-19T09:36:39.811Z,5032.00
2019-05-19T09:37:39.786Z,5032.00
2019-05-19T09:38:39.766Z,4964.00
2019-05-19T09:39:39.756Z,5012.00
2019-05-19T09:40:39.758Z,4964.00
2019-05-19T09:41:39.760Z,4988.00
2019-05-19T09:42:39.727Z,4948.00
2019-05-19T09:43:39.724Z,4904.00
2019-05-19T09:44:39.698Z,4836.00
2019-05-19T09:45:39.716Z,4756.00
2019-05-19T09:46:39.883Z,4712.00
2019-05-19T09:47:39.680Z,4680.00
2019-05-19T09:48:39.658Z,4636.00
2019-05-19T09:49:39.671Z,4536.00
2019-05-19T09:50:39.648Z,4288.00
2019-05-19T09:51:39.657Z,4248.00
2019-05-19T09:52:39.675Z,4484.00
2019-05-19T09:53:39.609Z,4812.00
2019-05-19T09:54:45.383Z,5008.00
2019-05-19T09:55:40.589Z,5116.00
2019-05-19T09:56:39.569Z,5272.00
2019-05-19T09:57:39.578Z,5440.00
2019-05-19T09:58:39.548Z,5672.00
2019-05-19T09:59:39.542Z,6136.00
2019-05-19T10:00:39.547Z,6248.00
2019-05-19T10:01:39.537Z,6228.00
2019-05-19T10:02:39.529Z,6324.00
2019-05-19T10:03:39.501Z,6348.00
2019-05-19T10:04:39.488Z,6516.00
2019-05-19T10:05:39.478Z,7000.00
2019-05-19T10:06:39.460Z,7084.00
2019-05-19T10:07:39.459Z,7000.00
2019-05-19T10:08:39.507Z,6996.00
2019-05-19T10:09:39.429Z,6984.00
2019-05-19T10:10:39.429Z,7040.00
2019-05-19T10:11:39.407Z,7224.00
2019-05-19T10:12:39.430Z,7492.00
2019-05-19T10:13:39.403Z,7652.00
2019-05-19T10:14:39.381Z,7612.00
2019-05-19T10:15:39.361Z,7200.00
2019-05-19T10:16:39.378Z,7288.00
2019-05-19T10:17:39.409Z,7380.00
2019-05-19T10:18:39.342Z,6896.00
2019-05-19T10:19:39.332Z,6692.00
2019-05-19T10:20:39.309Z,6708.00
2019-05-19T10:21:39.337Z,6256.00
2019-05-19T10:22:39.291Z,5976.00
2019-05-19T10:23:39.332Z,6196.00
2019-05-19T10:24:39.259Z,6668.00
2019-05-19T10:25:39.259Z,6968.00
2019-05-19T10:26:39.240Z,6956.00
2019-05-19T10:27:39.240Z,7160.00
2019-05-19T10:28:39.241Z,7012.00
2019-05-19T10:29:39.222Z,7016.00
2019-05-19T10:30:39.198Z,7164.00
2019-05-19T10:31:39.317Z,7268.00
2019-05-19T10:32:39.192Z,7288.00
2019-05-19T10:33:39.170Z,7156.00
2019-05-19T10:34:39.174Z,6836.00
2019-05-19T10:35:39.152Z,6308.00
2019-05-19T10:36:39.140Z,6096.00
2019-05-19T10:37:39.133Z,6216.00
2019-05-19T10:38:39.130Z,6060.00
2019-05-19T10:39:39.100Z,5712.00
2019-05-19T10:40:39.102Z,5572.00
2019-05-19T10:41:39.095Z,5372.00
2019-05-19T10:42:39.078Z,5220.00
2019-05-19T10:43:39.080Z,5100.00
2019-05-19T10:44:39.054Z,5064.00
2019-05-19T10:45:39.040Z,5104.00
2019-05-19T10:46:39.041Z,5236.00
2019-05-19T10:47:39.010Z,5508.00
2019-05-19T10:48:39.001Z,5600.00
2019-05-19T10:49:39.020Z,5796.00
2019-05-19T10:50:38.981Z,5964.00
2019-05-19T10:51:38.976Z,6404.00
2019-05-19T10:52:38.960Z,6904.00
2019-05-19T10:53:38.951Z,7116.00
2019-05-19T10:54:38.951Z,7068.00
2019-05-19T10:55:39.191Z,6792.00
2019-05-19T10:56:38.920Z,6528.00
2019-05-19T10:57:38.911Z,6340.00
2019-05-19T10:58:38.900Z,6324.00
2019-05-19T10:59:38.881Z,6452.00
2019-05-19T11:00:38.891Z,6660.00
2019-05-19T11:01:38.904Z,6728.00
2019-05-19T11:02:38.859Z,6804.00
2019-05-19T11:03:38.832Z,6744.00
2019-05-19T11:04:38.832Z,7336.00
2019-05-19T11:05:38.831Z,7644.00
2019-05-19T11:06:38.802Z,7812.00
2019-05-19T11:07:38.802Z,8112.00
2019-05-19T11:08:38.824Z,8636.00
2019-05-19T11:09:38.773Z,8904.00
2019-05-19T11:10:38.782Z,9228.00
2019-05-19T11:11:38.761Z,9744.00
2019-05-19T11:12:38.755Z,10384.00
2019-05-19T11:13:38.747Z,11052.00
2019-05-19T11:14:38.729Z,11144.00
2019-05-19T11:15:38.738Z,10384.00
2019-05-19T11:16:38.732Z,9856.00
2019-05-19T11:17:38.722Z,9288.00
2019-05-19T11:18:38.673Z,9096.00
2019-05-19T11:19:38.662Z,9060.00
2019-05-19T11:20:38.700Z,9228.00
2019-05-19T11:21:38.654Z,9296.00
2019-05-19T11:22:38.663Z,9072.00
2019-05-19T11:23:38.622Z,8132.00
2019-05-19T11:24:38.623Z,7928.00
2019-05-19T11:25:50.619Z,7760.00
2019-05-19T11:26:39.595Z,7644.00
2019-05-19T11:27:38.694Z,7256.00
2019-05-19T11:28:38.583Z,7056.00
2019-05-19T11:29:38.568Z,7120.00
2019-05-19T11:30:38.547Z,7352.00
2019-05-19T11:31:38.633Z,7704.00
2019-05-19T11:32:38.524Z,8112.00
2019-05-19T11:33:38.523Z,8416.00
2019-05-19T11:34:38.512Z,9040.00
2019-05-19T11:35:38.493Z,9140.00
2019-05-19T11:36:38.513Z,9000.00
2019-05-19T11:37:38.473Z,8576.00
2019-05-19T11:38:38.473Z,8724.00
2019-05-19T11:39:38.463Z,8816.00
2019-05-19T11:40:38.444Z,9228.00
2019-05-19T11:41:38.434Z,9052.00
2019-05-19T11:42:38.457Z,8948.00
2019-05-19T11:43:38.423Z,8800.00
2019-05-19T11:44:38.395Z,8752.00
2019-05-19T11:45:38.414Z,8616.00
2019-05-19T11:46:38.394Z,8544.00
2019-05-19T11:47:38.374Z,8404.00
2019-05-19T11:48:38.378Z,8156.00
2019-05-19T11:49:38.343Z,7732.00
2019-05-19T11:50:41.891Z,7308.00
2019-05-19T11:51:38.324Z,7144.00
2019-05-19T11:52:38.325Z,7228.00
2019-05-19T11:53:38.379Z,7460.00
2019-05-19T11:54:38.294Z,7744.00
2019-05-19T11:55:38.298Z,7932.00
2019-05-19T11:56:38.265Z,8056.00
2019-05-19T11:57:38.269Z,8356.00
2019-05-19T11:58:38.265Z,8652.00
2019-05-19T11:59:38.253Z,9436.00
2019-05-19T12:00:38.247Z,10084.00
2019-05-19T12:01:38.230Z,10736.00
2019-05-19T12:02:38.205Z,11212.00
2019-05-19T12:03:38.196Z,11440.00
2019-05-19T12:04:38.195Z,11388.00
2019-05-19T12:05:38.183Z,11448.00
2019-05-19T12:06:40.068Z,11340.00
2019-05-19T12:07:38.158Z,11144.00
2019-05-19T12:08:38.168Z,10800.00
2019-05-19T12:09:38.148Z,10276.00
2019-05-19T12:10:38.125Z,9800.00
2019-05-19T12:11:38.184Z,8968.00
2019-05-19T12:12:38.141Z,8132.00
2019-05-19T12:13:38.144Z,7764.00
2019-05-19T12:14:38.089Z,7420.00
2019-05-19T12:15:38.089Z,6940.00
2019-05-19T12:16:38.065Z,6648.00
2019-05-19T12:17:38.055Z,6208.00
2019-05-19T12:18:38.074Z,6052.00
2019-05-19T12:19:38.048Z,6088.00
2019-05-19T12:20:38.035Z,6528.00
2019-05-19T12:21:38.009Z,6620.00
2019-05-19T12:22:38.009Z,6764.00
2019-05-19T12:23:37.989Z,6516.00
2019-05-19T12:24:37.988Z,6164.00